createdAt,value
2023-03-16T00:01:35.501Z,54.45
2023-03-16T00:04:08.413Z,54.70
2023-03-16T00:06:43.036Z,54.79
2023-03-16T00:09:17.558Z,54.13
2023-03-16T00:11:50.030Z,54.55
2023-03-16T00:14:23.139Z,54.26
2023-03-16T00:16:56.243Z,54.48
2023-03-16T00:19:28.706Z,54.18
2023-03-16T00:22:02.502Z,54.18
2023-03-16T00:24:35.129Z,54.49
2023-03-16T00:27:07.708Z,54.18
2023-03-16T00:29:47.404Z,54.11
2023-03-16T00:32:21.794Z,54.42
2023-03-16T00:34:54.601Z,54.53
2023-03-16T00:37:28.359Z,54.54
2023-03-16T00:40:01.937Z,54.51
2023-03-16T00:42:35.122Z,54.57
2023-03-16T00:45:08.191Z,54.38
2023-03-16T00:47:42.404Z,54.37
2023-03-16T00:50:15.750Z,54.50
2023-03-16T00:52:48.255Z,54.36
2023-03-16T00:55:21.342Z,54.46
2023-03-16T00:57:54.579Z,54.34
2023-03-16T01:00:28.922Z,54.70
2023-03-16T01:03:01.495Z,53.98
2023-03-16T01:05:34.110Z,54.67
2023-03-16T01:08:07.357Z,54.36
2023-03-16T01:10:40.764Z,54.50
2023-03-16T01:13:13.127Z,53.99
2023-03-16T01:15:46.141Z,54.34
2023-03-16T01:18:18.577Z,54.08
2023-03-16T01:20:51.231Z,54.36
2023-03-16T01:23:23.680Z,54.29
2023-03-16T01:25:57.041Z,54.60
2023-03-16T01:28:31.934Z,54.35
2023-03-16T01:31:10.394Z,54.09
2023-03-16T01:33:44.244Z,54.17
2023-03-16T01:36:22.167Z,54.10
2023-03-16T01:39:01.200Z,54.31
2023-03-16T01:41:39.317Z,54.55
2023-03-16T01:44:16.483Z,54.65
2023-03-16T01:46:49.468Z,54.36
2023-03-16T01:49:36.681Z,54.37
2023-03-16T01:52:13.363Z,53.99
2023-03-16T01:54:56.119Z,54.29
2023-03-16T01:57:36.973Z,54.08
2023-03-16T02:00:19.908Z,53.95
2023-03-16T02:03:21.808Z,54.31
2023-03-16T02:06:11.568Z,54.16
2023-03-16T02:08:50.006Z,54.56
2023-03-16T02:11:23.752Z,54.11
2023-03-16T02:14:12.609Z,54.01
2023-03-16T02:16:46.028Z,54.25
2023-03-16T02:19:32.434Z,54.25
2023-03-16T02:22:14.285Z,53.92
2023-03-16T02:24:46.975Z,54.14
2023-03-16T02:27:48.605Z,54.34
2023-03-16T02:30:21.928Z,54.07
2023-03-16T02:33:05.309Z,54.49
2023-03-16T02:35:37.730Z,54.21
2023-03-16T02:38:10.347Z,54.14
2023-03-16T02:40:58.302Z,54.54
2023-03-16T02:43:35.508Z,54.12
2023-03-16T02:46:17.547Z,53.97
2023-03-16T02:48:59.497Z,54.24
2023-03-16T02:51:32.513Z,54.05
2023-03-16T02:54:05.057Z,54.19
2023-03-16T02:56:40.462Z,54.34
2023-03-16T02:59:14.338Z,54.16
2023-03-16T03:01:47.714Z,54.37
2023-03-16T03:04:23.519Z,53.85
2023-03-16T03:06:55.944Z,54.38
2023-03-16T03:09:28.801Z,54.24
2023-03-16T03:12:01.371Z,54.11
2023-03-16T03:14:45.553Z,54.32
2023-03-16T03:17:30.098Z,54.18
2023-03-16T03:20:08.083Z,54.24
2023-03-16T03:22:40.642Z,54.13
2023-03-16T03:25:17.295Z,54.38
2023-03-16T03:27:51.050Z,53.98
2023-03-16T03:30:26.601Z,54.08
2023-03-16T03:32:59.488Z,53.79
2023-03-16T03:35:32.646Z,54.44
2023-03-16T03:38:08.164Z,54.27
2023-03-16T03:40:41.366Z,54.01
2023-03-16T03:43:13.895Z,54.04
2023-03-16T03:45:55.244Z,54.04
2023-03-16T03:48:28.300Z,54.05
2023-03-16T03:51:02.513Z,53.92
2023-03-16T03:53:50.053Z,54.09
2023-03-16T03:56:45.433Z,54.31
2023-03-16T03:59:22.643Z,53.91
2023-03-16T04:02:14.509Z,54.39
2023-03-16T04:04:52.561Z,54.30
2023-03-16T04:07:24.997Z,54.21
2023-03-16T04:10:03.917Z,54.55
2023-03-16T04:12:43.895Z,54.18
2023-03-16T04:15:19.794Z,54.58
2023-03-16T04:18:03.667Z,54.12
2023-03-16T04:20:36.879Z,53.99
2023-03-16T04:23:10.285Z,54.23
2023-03-16T04:25:45.445Z,54.34
2023-03-16T04:28:19.986Z,54.28
2023-03-16T04:31:01.304Z,54.28
2023-03-16T04:33:40.722Z,54.00
2023-03-16T04:36:14.102Z,54.42
2023-03-16T04:38:48.715Z,54.29
2023-03-16T04:41:21.265Z,54.32
2023-03-16T04:44:04.888Z,54.32
2023-03-16T04:46:37.390Z,54.13
2023-03-16T04:49:13.264Z,54.03
2023-03-16T04:51:49.029Z,54.18
2023-03-16T04:54:24.735Z,54.47
2023-03-16T04:56:58.322Z,53.93
2023-03-16T04:59:43.203Z,54.49
2023-03-16T05:02:32.407Z,54.36
2023-03-16T05:05:07.063Z,54.20
2023-03-16T05:07:43.200Z,53.91
2023-03-16T05:10:18.940Z,54.12
2023-03-16T05:12:52.818Z,54.35
2023-03-16T05:15:27.416Z,54.25
2023-03-16T05:18:23.089Z,54.39
2023-03-16T05:20:56.667Z,54.08
2023-03-16T05:23:33.579Z,54.00
2023-03-16T05:26:08.899Z,54.25
2023-03-16T05:28:43.296Z,54.41
2023-03-16T05:31:19.146Z,54.13
2023-03-16T05:33:57.610Z,54.71
2023-03-16T05:36:29.996Z,54.42
2023-03-16T05:39:10.190Z,54.35
2023-03-16T05:41:47.171Z,54.46
2023-03-16T05:44:33.904Z,54.30
2023-03-16T05:47:24.742Z,54.28
2023-03-16T05:50:01.455Z,54.41
2023-03-16T05:52:39.978Z,54.59
2023-03-16T05:55:20.548Z,54.31
2023-03-16T05:57:59.493Z,54.26
2023-03-16T06:00:33.110Z,54.39
2023-03-16T06:03:17.487Z,54.67
2023-03-16T06:05:49.925Z,54.39
2023-03-16T06:08:27.888Z,54.34
2023-03-16T06:11:05.694Z,54.55
2023-03-16T06:13:39.249Z,54.50
2023-03-16T06:16:14.324Z,54.60
2023-03-16T06:18:46.850Z,54.39
2023-03-16T06:21:19.443Z,54.61
2023-03-16T06:23:56.144Z,54.66
2023-03-16T06:26:28.611Z,54.42
2023-03-16T06:29:01.510Z,54.65
2023-03-16T06:31:34.804Z,54.49
2023-03-16T06:34:08.255Z,54.63
2023-03-16T06:36:41.105Z,54.89
2023-03-16T06:39:17.435Z,54.83
2023-03-16T06:41:53.527Z,54.42
2023-03-16T06:44:26.315Z,54.76
2023-03-16T06:47:13.548Z,54.56
2023-03-16T06:49:47.117Z,54.78
2023-03-16T06:52:24.903Z,54.69
2023-03-16T06:54:58.613Z,55.02
2023-03-16T06:57:32.472Z,54.72
2023-03-16T07:00:07.334Z,54.84
2023-03-16T07:02:41.172Z,54.77
2023-03-16T07:05:14.637Z,54.74
2023-03-16T07:07:48.060Z,54.84
2023-03-16T07:10:21.774Z,54.79
2023-03-16T07:12:55.877Z,54.69
2023-03-16T07:15:29.697Z,54.87
2023-03-16T07:18:03.695Z,54.88
2023-03-16T07:20:36.386Z,54.92
2023-03-16T07:23:12.550Z,55.35
2023-03-16T07:25:46.546Z,55.31
2023-03-16T07:28:22.819Z,55.07
2023-03-16T07:31:03.879Z,55.43
2023-03-16T07:33:46.957Z,54.68
2023-03-16T07:36:28.868Z,55.20
2023-03-16T07:39:06.335Z,55.12
2023-03-16T07:41:41.770Z,55.11
2023-03-16T07:44:20.975Z,55.18
2023-03-16T07:46:56.623Z,55.32
2023-03-16T07:49:34.562Z,55.14
2023-03-16T07:52:08.064Z,54.96
2023-03-16T07:54:45.216Z,54.94
2023-03-16T07:57:19.324Z,55.35
2023-03-16T07:59:52.861Z,55.39
2023-03-16T08:02:27.196Z,55.31
2023-03-16T08:05:00.161Z,55.78
2023-03-16T08:07:32.598Z,55.53
2023-03-16T08:10:11.758Z,55.54
2023-03-16T08:12:51.662Z,55.72
2023-03-16T08:15:25.049Z,55.81
2023-03-16T08:18:04.522Z,55.65
2023-03-16T08:20:37.452Z,55.69
2023-03-16T08:23:09.883Z,55.59
2023-03-16T08:25:46.386Z,55.93
2023-03-16T08:28:22.408Z,55.81
2023-03-16T08:30:56.714Z,55.89
2023-03-16T08:34:05.348Z,55.92
2023-03-16T08:36:43.985Z,56.20
2023-03-16T08:39:18.262Z,56.11
2023-03-16T08:41:54.254Z,56.18
2023-03-16T08:44:36.417Z,56.18
2023-03-16T08:47:09.222Z,56.10
2023-03-16T08:49:42.614Z,56.31
2023-03-16T08:52:17.760Z,56.37
2023-03-16T08:55:02.480Z,56.52
2023-03-16T08:57:35.967Z,56.37
2023-03-16T09:00:17.007Z,56.00
2023-03-16T09:02:49.594Z,56.02
2023-03-16T09:05:23.426Z,56.40
2023-03-16T09:07:56.690Z,56.12
2023-03-16T09:10:29.152Z,56.08
2023-03-16T09:13:03.624Z,56.33
2023-03-16T09:15:36.459Z,55.91
2023-03-16T09:18:08.881Z,56.01
2023-03-16T09:20:41.405Z,55.91
2023-03-16T09:23:14.416Z,56.18
2023-03-16T09:25:47.070Z,56.39
2023-03-16T09:28:22.284Z,56.03
2023-03-16T09:30:55.856Z,56.35
2023-03-16T09:33:32.695Z,56.00
2023-03-16T09:36:05.211Z,55.71
2023-03-16T09:38:38.616Z,55.81
2023-03-16T09:41:23.956Z,55.94
2023-03-16T09:44:20.603Z,55.85
2023-03-16T09:46:54.683Z,56.08
2023-03-16T09:49:36.410Z,56.00
2023-03-16T09:52:36.839Z,56.46
2023-03-16T09:55:31.575Z,56.06
2023-03-16T09:58:13.338Z,55.91
2023-03-16T10:00:50.421Z,55.82
2023-03-16T10:03:43.921Z,55.92
2023-03-16T10:06:16.965Z,55.95
2023-03-16T10:09:15.539Z,55.76
2023-03-16T10:11:56.491Z,55.72
2023-03-16T10:14:42.960Z,55.75
2023-03-16T10:17:47.865Z,55.62
2023-03-16T10:20:23.126Z,55.39
2023-03-16T10:22:55.688Z,55.86
2023-03-16T10:25:49.324Z,55.56
2023-03-16T10:28:27.854Z,55.44
2023-03-16T10:31:01.779Z,55.13
2023-03-16T10:33:38.990Z,55.36
2023-03-16T10:36:38.487Z,55.28
2023-03-16T10:39:13.830Z,55.61
2023-03-16T10:41:56.155Z,55.34
2023-03-16T10:44:30.152Z,55.63
2023-03-16T10:47:05.641Z,55.38
2023-03-16T10:49:44.562Z,55.85
2023-03-16T10:52:24.027Z,55.59
2023-03-16T10:55:07.309Z,55.33
2023-03-16T10:57:48.828Z,55.42
2023-03-16T11:00:26.456Z,55.16
2023-03-16T11:03:01.391Z,55.37
2023-03-16T11:05:34.968Z,55.32
2023-03-16T11:08:13.732Z,55.66
2023-03-16T11:10:56.184Z,55.08
2023-03-16T11:13:35.183Z,55.66
2023-03-16T11:16:17.953Z,55.14
2023-03-16T11:18:58.855Z,54.92
2023-03-16T11:21:34.061Z,54.84
2023-03-16T11:24:15.288Z,54.85
2023-03-16T11:26:54.559Z,54.88
2023-03-16T11:29:29.973Z,55.00
2023-03-16T11:32:12.321Z,55.28
2023-03-16T11:34:46.825Z,55.04
2023-03-16T11:37:47.341Z,54.84
2023-03-16T11:40:38.782Z,55.07
2023-03-16T11:43:41.861Z,54.53
2023-03-16T11:46:29.290Z,54.52
2023-03-16T11:49:39.484Z,54.62
2023-03-16T11:52:24.205Z,54.92
2023-03-16T11:55:15.578Z,54.87
2023-03-16T11:58:08.798Z,54.83
2023-03-16T12:01:15.644Z,54.78
2023-03-16T12:04:02.510Z,54.13
2023-03-16T12:06:53.180Z,54.79
2023-03-16T12:09:38.284Z,54.53
2023-03-16T12:12:37.640Z,54.75
2023-03-16T12:15:31.436Z,54.55
2023-03-16T12:18:13.354Z,53.97
2023-03-16T12:21:01.742Z,54.48
2023-03-16T12:23:55.437Z,54.21
2023-03-16T12:26:34.784Z,54.57
2023-03-16T12:29:32.766Z,54.65
2023-03-16T12:32:37.562Z,54.05
2023-03-16T12:35:40.042Z,54.91
2023-03-16T12:38:46.902Z,53.95
2023-03-16T12:41:27.889Z,54.18
2023-03-16T12:44:16.139Z,54.21
2023-03-16T12:46:56.737Z,54.53
2023-03-16T12:49:34.746Z,54.67
2023-03-16T12:52:11.519Z,54.27
2023-03-16T12:54:55.602Z,54.73
2023-03-16T12:57:28.175Z,54.65
2023-03-16T13:00:01.843Z,54.70
2023-03-16T13:02:37.582Z,54.83
2023-03-16T13:05:18.315Z,54.59
2023-03-16T13:08:06.097Z,54.77
2023-03-16T13:10:59.620Z,55.04
2023-03-16T13:13:35.761Z,55.07
2023-03-16T13:16:23.756Z,54.72
2023-03-16T13:18:56.992Z,54.99
2023-03-16T13:21:38.007Z,54.56
2023-03-16T13:24:23.117Z,54.87
2023-03-16T13:27:04.577Z,54.47
2023-03-16T13:29:39.029Z,54.69
2023-03-16T13:32:18.643Z,54.91
2023-03-16T13:34:58.886Z,54.77
2023-03-16T13:37:33.601Z,54.58
2023-03-16T13:40:20.386Z,54.33
2023-03-16T13:42:57.232Z,54.78
2023-03-16T13:45:37.657Z,54.72
2023-03-16T13:48:18.126Z,54.99
2023-03-16T13:50:57.792Z,55.03
2023-03-16T13:53:33.036Z,54.30
2023-03-16T13:56:06.084Z,54.39
2023-03-16T13:58:40.283Z,54.13
2023-03-16T14:01:26.779Z,53.79
2023-03-16T14:04:08.812Z,54.05
2023-03-16T14:06:51.279Z,53.90
2023-03-16T14:09:28.768Z,54.24
2023-03-16T14:12:01.651Z,53.74
2023-03-16T14:14:40.454Z,53.91
2023-03-16T14:17:18.079Z,53.59
2023-03-16T14:20:00.172Z,53.56
2023-03-16T14:22:37.135Z,53.24
2023-03-16T14:25:39.420Z,52.84
2023-03-16T14:28:17.760Z,51.85
2023-03-16T14:30:52.764Z,51.53
2023-03-16T14:33:41.408Z,50.21
2023-03-16T14:36:16.497Z,49.90
2023-03-16T14:38:49.326Z,49.25
2023-03-16T14:41:26.474Z,48.10
2023-03-16T14:44:01.487Z,47.11
2023-03-16T14:46:38.713Z,46.25
2023-03-16T14:49:28.508Z,45.61
2023-03-16T14:52:22.101Z,45.58
2023-03-16T14:54:55.425Z,46.27
2023-03-16T14:57:27.955Z,46.83
2023-03-16T15:00:00.463Z,46.66
2023-03-16T15:02:37.856Z,47.07
2023-03-16T15:05:22.590Z,47.38
2023-03-16T15:07:56.200Z,47.71
2023-03-16T15:10:32.032Z,47.86
2023-03-16T15:13:35.640Z,47.85
2023-03-16T15:16:14.251Z,48.32
2023-03-16T15:18:46.681Z,48.57
2023-03-16T15:21:25.016Z,48.63
2023-03-16T15:24:00.424Z,49.01
2023-03-16T15:26:33.036Z,49.31
2023-03-16T15:29:06.872Z,49.51
2023-03-16T15:31:39.405Z,50.14
2023-03-16T15:34:11.821Z,50.20
2023-03-16T15:36:44.935Z,50.22
2023-03-16T15:39:24.053Z,50.30
2023-03-16T15:41:57.496Z,50.73
2023-03-16T15:44:30.136Z,51.15
2023-03-16T15:47:03.229Z,50.38
2023-03-16T15:49:46.591Z,50.66
2023-03-16T15:52:37.925Z,51.06
2023-03-16T15:55:35.269Z,50.85
2023-03-16T15:58:21.013Z,51.22
2023-03-16T16:00:55.785Z,51.29
2023-03-16T16:03:28.187Z,51.02
2023-03-16T16:06:02.098Z,50.65
2023-03-16T16:08:35.030Z,50.49
2023-03-16T16:11:16.027Z,51.32
2023-03-16T16:13:48.581Z,51.13
2023-03-16T16:16:27.307Z,51.49
2023-03-16T16:19:00.733Z,51.97
2023-03-16T16:21:34.759Z,51.61
2023-03-16T16:24:09.352Z,51.97
2023-03-16T16:26:54.761Z,51.84
2023-03-16T16:29:32.083Z,51.80
2023-03-16T16:32:16.769Z,52.08
2023-03-16T16:35:03.311Z,51.90
2023-03-16T16:37:36.385Z,52.37
2023-03-16T16:40:14.246Z,52.84
2023-03-16T16:42:49.071Z,52.71
2023-03-16T16:45:23.941Z,52.79
2023-03-16T16:47:57.001Z,52.44
2023-03-16T16:50:31.316Z,52.74
2023-03-16T16:53:19.547Z,52.62
2023-03-16T16:55:52.649Z,52.99
2023-03-16T16:58:25.411Z,53.46
2023-03-16T17:00:59.246Z,53.10
2023-03-16T17:03:32.024Z,52.92
2023-03-16T17:06:04.818Z,52.81
2023-03-16T17:08:38.079Z,53.09
2023-03-16T17:11:32.327Z,53.01
2023-03-16T17:14:07.808Z,53.00
2023-03-16T17:16:41.273Z,53.22
2023-03-16T17:19:31.758Z,53.36
2023-03-16T17:22:17.056Z,53.58
2023-03-16T17:24:49.719Z,53.78
2023-03-16T17:27:27.284Z,53.56
2023-03-16T17:29:59.900Z,53.89
2023-03-16T17:32:33.596Z,53.75
2023-03-16T17:35:14.175Z,54.21
2023-03-16T17:37:48.148Z,53.77
2023-03-16T17:40:25.396Z,54.02
2023-03-16T17:42:57.894Z,54.16
2023-03-16T17:45:30.658Z,53.70
2023-03-16T17:48:05.811Z,54.12
2023-03-16T17:50:38.388Z,53.78
2023-03-16T17:53:10.819Z,54.16
2023-03-16T17:55:46.888Z,53.96
2023-03-16T17:58:29.708Z,54.09
2023-03-16T18:01:04.472Z,53.63
2023-03-16T18:03:37.041Z,54.44
2023-03-16T18:06:20.425Z,53.80
2023-03-16T18:08:53.211Z,54.08
2023-03-16T18:11:35.637Z,54.17
2023-03-16T18:14:19.634Z,54.15
2023-03-16T18:16:52.876Z,54.01
2023-03-16T18:19:25.780Z,54.36
2023-03-16T18:22:01.271Z,54.48
2023-03-16T18:24:33.878Z,54.50
2023-03-16T18:27:09.308Z,54.01
2023-03-16T18:29:42.744Z,54.53
2023-03-16T18:32:26.123Z,54.10
2023-03-16T18:35:04.053Z,54.26
2023-03-16T18:37:36.876Z,54.05
2023-03-16T18:40:14.586Z,54.14
2023-03-16T18:42:48.252Z,54.15
2023-03-16T18:45:28.967Z,54.32
2023-03-16T18:48:06.183Z,54.63
2023-03-16T18:50:43.788Z,54.47
2023-03-16T18:53:17.333Z,54.12
2023-03-16T18:55:50.451Z,54.75
2023-03-16T18:58:24.721Z,54.97
2023-03-16T19:00:59.411Z,54.21
2023-03-16T19:03:34.878Z,53.96
2023-03-16T19:06:24.970Z,54.46
2023-03-16T19:09:19.250Z,54.47
2023-03-16T19:11:51.847Z,54.28
2023-03-16T19:14:28.398Z,54.63
2023-03-16T19:17:01.270Z,54.27
2023-03-16T19:19:35.741Z,54.50
2023-03-16T19:22:15.872Z,54.51
2023-03-16T19:24:54.939Z,54.12
2023-03-16T19:27:39.029Z,54.28
2023-03-16T19:30:28.507Z,54.87
2023-03-16T19:33:01.763Z,55.08
2023-03-16T19:35:50.734Z,54.89
2023-03-16T19:38:27.436Z,54.95
2023-03-16T19:41:02.937Z,54.51
2023-03-16T19:43:36.634Z,54.37
2023-03-16T19:46:16.284Z,54.62
2023-03-16T19:48:50.196Z,54.49
2023-03-16T19:51:25.993Z,55.12
2023-03-16T19:54:01.405Z,55.03
2023-03-16T19:56:33.942Z,54.89
2023-03-16T19:59:06.446Z,54.86
2023-03-16T20:01:38.960Z,55.32
2023-03-16T20:04:23.666Z,55.21
2023-03-16T20:06:56.104Z,55.51
2023-03-16T20:09:28.576Z,55.36
2023-03-16T20:12:01.120Z,55.52
2023-03-16T20:14:36.594Z,55.42
2023-03-16T20:17:19.609Z,55.71
2023-03-16T20:19:53.181Z,55.36
2023-03-16T20:22:28.745Z,55.43
2023-03-16T20:25:02.230Z,56.12
2023-03-16T20:27:36.636Z,55.40
2023-03-16T20:30:19.302Z,55.72
2023-03-16T20:32:53.093Z,55.90
2023-03-16T20:35:28.647Z,55.92
2023-03-16T20:38:01.331Z,55.80
2023-03-16T20:40:34.831Z,55.90
2023-03-16T20:43:19.521Z,55.52
2023-03-16T20:45:54.536Z,56.67
2023-03-16T20:48:27.721Z,56.68
2023-03-16T20:51:01.486Z,56.17
2023-03-16T20:53:38.406Z,55.89
2023-03-16T20:56:22.429Z,56.18
2023-03-16T20:58:56.235Z,56.97
2023-03-16T21:01:28.855Z,57.00
2023-03-16T21:04:03.633Z,56.56
2023-03-16T21:06:35.951Z,56.62
2023-03-16T21:09:08.984Z,56.53
2023-03-16T21:11:43.559Z,56.78
2023-03-16T21:14:23.396Z,56.70
2023-03-16T21:16:56.521Z,56.70
2023-03-16T21:19:28.937Z,56.38
2023-03-16T21:22:02.309Z,57.10
2023-03-16T21:24:37.119Z,56.95
2023-03-16T21:27:22.258Z,57.16
2023-03-16T21:29:56.307Z,57.12
2023-03-16T21:32:31.139Z,56.99
2023-03-16T21:35:04.283Z,56.92
2023-03-16T21:37:36.670Z,57.09
2023-03-16T21:40:20.994Z,57.05
2023-03-16T21:42:54.936Z,57.12
2023-03-16T21:45:28.059Z,57.35
2023-03-16T21:48:00.821Z,57.19
2023-03-16T21:50:36.746Z,57.74
2023-03-16T21:53:25.288Z,57.42
2023-03-16T21:56:00.285Z,57.86
2023-03-16T21:58:32.726Z,57.39
2023-03-16T22:01:05.791Z,57.12
2023-03-16T22:03:50.371Z,57.27
2023-03-16T22:06:25.564Z,57.36
2023-03-16T22:08:59.790Z,57.09
2023-03-16T22:11:32.365Z,57.38
2023-03-16T22:14:04.940Z,57.49
2023-03-16T22:16:38.087Z,57.22
2023-03-16T22:19:13.691Z,57.45
2023-03-16T22:21:47.212Z,56.74
2023-03-16T22:24:30.058Z,57.02
2023-03-16T22:27:02.584Z,57.06
2023-03-16T22:29:35.048Z,57.42
2023-03-16T22:32:21.063Z,57.09
2023-03-16T22:34:57.402Z,57.91
2023-03-16T22:37:30.383Z,57.34
2023-03-16T22:40:03.729Z,57.15
2023-03-16T22:42:39.153Z,57.69
2023-03-16T22:45:27.661Z,57.35
2023-03-16T22:48:02.534Z,57.39
2023-03-16T22:50:36.257Z,56.88
2023-03-16T22:53:12.907Z,57.20
2023-03-16T22:55:45.694Z,56.66
2023-03-16T22:58:30.305Z,57.16
2023-03-16T23:01:33.801Z,57.20
2023-03-16T23:04:13.752Z,57.32
2023-03-16T23:06:48.449Z,56.93
2023-03-16T23:09:22.109Z,57.11
2023-03-16T23:11:57.569Z,57.13
2023-03-16T23:14:32.904Z,57.15
2023-03-16T23:17:16.595Z,57.21
2023-03-16T23:19:49.677Z,56.63
2023-03-16T23:22:22.407Z,56.85
2023-03-16T23:24:54.712Z,56.64
2023-03-16T23:27:27.392Z,57.15
2023-03-16T23:30:00.093Z,57.34
2023-03-16T23:32:33.869Z,56.63
2023-03-16T23:35:14.010Z,56.93
2023-03-16T23:37:47.661Z,57.20
2023-03-16T23:40:21.169Z,56.92
2023-03-16T23:42:55.691Z,56.82
2023-03-16T23:45:39.793Z,56.91
2023-03-16T23:48:20.644Z,56.89
2023-03-16T23:50:55.499Z,57.05
2023-03-16T23:53:28.229Z,57.02
2023-03-16T23:56:01.059Z,56.82
2023-03-16T23:58:33.448Z,57.11
